Time;durP1;ratioP1;P1;durP2;ratioP2;P2;SDS_P1;SDS_P2;PMS_P1;PMS_P2;Temp;Humidity;BMP_temperature;BMP_pressure;BME280_temperature;BME280_humidity;BME280_pressure;Samples;Min_cycle;Max_cycle;Signal;HPM_P1;HPM_P2
2021/07/30 00:02:05;;;;;;;16.42;8.88;;;;;;;21.76;62.85;96212.59;5073792;28;20028;-75
2021/07/30 00:04:31;;;;;;;24.23;9.07;;;;;;;21.75;62.93;96208.25;5074768;28;20360;-75
2021/07/30 00:06:58;;;;;;;18.90;10.45;;;;;;;21.75;62.59;96205.59;5088023;28;20097;-75
2021/07/30 00:09:23;;;;;;;14.35;7.93;;;;;;;21.74;62.39;96200.38;5094015;28;20020;-73
2021/07/30 00:11:49;;;;;;;15.98;8.73;;;;;;;21.73;62.60;96191.53;5093795;28;20382;-75
2021/07/30 00:14:14;;;;;;;15.80;9.18;;;;;;;21.70;62.80;96192.66;5088215;28;20020;-73
2021/07/30 00:16:40;;;;;;;14.57;8.90;;;;;;;21.69;62.31;96195.47;5072858;28;20174;-70
2021/07/30 00:19:06;;;;;;;22.80;8.85;;;;;;;21.69;62.84;96198.13;5073414;28;20012;-72
2021/07/30 00:21:32;;;;;;;22.65;9.00;;;;;;;21.59;62.81;96190.13;5073487;28;20490;-73
2021/07/30 00:23:57;;;;;;;16.38;8.55;;;;;;;21.56;62.78;96193.91;5073301;28;20060;-70
2021/07/30 00:26:23;;;;;;;14.90;8.95;;;;;;;21.56;62.74;96198.38;5074460;28;20115;-72
2021/07/30 00:28:49;;;;;;;17.83;8.48;;;;;;;21.48;62.47;96198.19;5073164;28;20052;-77
2021/07/30 00:31:15;;;;;;;15.30;8.55;;;;;;;21.34;62.92;96216.19;5073359;28;20037;-74
2021/07/30 00:33:41;;;;;;;15.88;8.75;;;;;;;21.06;63.46;96216.78;5073511;28;20032;-74
2021/07/30 00:36:06;;;;;;;17.10;8.98;;;;;;;21.11;63.54;96215.56;5073328;28;20059;-75
2021/07/30 00:38:32;;;;;;;23.25;8.88;;;;;;;21.08;63.21;96209.50;5086806;28;20027;-73
2021/07/30 00:41:00;;;;;;;20.52;8.25;;;;;;;21.15;62.48;96203.66;5093032;28;20034;-78
2021/07/30 00:43:26;;;;;;;18.48;8.77;;;;;;;21.16;63.54;96197.41;5093334;28;20085;-77
2021/07/30 00:45:53;;;;;;;17.83;9.10;;;;;;;21.09;64.12;96199.72;5093427;28;20013;-70
2021/07/30 00:48:21;;;;;;;21.40;8.68;;;;;;;21.06;63.99;96190.22;5074160;28;20047;-75
2021/07/30 00:50:46;;;;;;;27.65;9.30;;;;;;;21.10;63.92;96193.44;5073067;28;20516;-77
2021/07/30 00:53:13;;;;;;;13.57;8.63;;;;;;;21.15;63.59;96191.22;5073065;28;20033;-75
2021/07/30 00:55:39;;;;;;;20.52;8.55;;;;;;;21.25;62.90;96193.91;5073051;28;20385;-75
2021/07/30 00:58:05;;;;;;;19.77;8.80;;;;;;;21.38;63.07;96196.38;5087660;28;20043;-74
2021/07/30 01:00:30;;;;;;;17.35;9.40;;;;;;;21.51;62.47;96189.94;5073206;28;20056;-75
2021/07/30 01:02:59;;;;;;;18.95;8.77;;;;;;;21.50;62.43;96188.28;5092825;28;20031;-79
2021/07/30 01:05:26;;;;;;;19.33;9.20;;;;;;;21.60;61.98;96181.16;5093092;28;20028;-74
2021/07/30 01:07:52;;;;;;;19.42;8.90;;;;;;;21.63;62.61;96172.06;5091192;28;20028;-72
2021/07/30 01:10:17;;;;;;;17.42;9.35;;;;;;;21.60;62.84;96170.50;5072860;28;20029;-71
2021/07/30 01:12:44;;;;;;;18.67;9.27;;;;;;;21.57;62.38;96184.09;5072726;28;20020;-77
2021/07/30 01:15:10;;;;;;;16.80;9.18;;;;;;;21.46;62.64;96185.03;5072747;28;20020;-76
2021/07/30 01:17:35;;;;;;;16.35;8.82;;;;;;;21.47;63.11;96186.72;5072757;28;20031;-73
2021/07/30 01:20:01;;;;;;;18.75;9.20;;;;;;;21.44;62.91;96179.88;5074588;28;20123;-74
2021/07/30 01:22:32;;;;;;;18.08;8.75;;;;;;;21.39;62.96;96187.41;5074915;28;20052;-74
2021/07/30 01:24:57;;;;;;;18.83;8.73;;;;;;;21.37;62.94;96192.00;5073947;28;20052;-73
2021/07/30 01:27:23;;;;;;;18.23;8.88;;;;;;;21.37;63.18;96184.03;5075077;28;20082;-71
2021/07/30 01:29:49;;;;;;;17.25;8.95;;;;;;;21.32;63.18;96184.44;5076615;28;20538;-75
2021/07/30 01:32:16;;;;;;;13.48;9.10;;;;;;;21.30;64.06;96185.53;5077656;28;20020;-76
2021/07/30 01:34:44;;;;;;;19.20;9.40;;;;;;;21.25;63.62;96182.47;5076698;28;20111;-74
2021/07/30 01:37:11;;;;;;;22.10;11.05;;;;;;;21.19;64.10;96189.97;5076505;28;20020;-79
2021/07/30 01:39:37;;;;;;;19.50;9.55;;;;;;;20.97;64.15;96188.34;5076601;28;20082;-71
2021/07/30 01:42:02;;;;;;;19.92;10.40;;;;;;;20.99;63.80;96180.22;5076511;28;20021;-72
2021/07/30 01:44:28;;;;;;;16.85;9.98;;;;;;;20.95;64.18;96185.00;5077148;28;20024;-75
2021/07/30 01:46:54;;;;;;;18.85;10.07;;;;;;;20.99;64.38;96178.44;5076219;28;20067;-71
2021/07/30 01:49:19;;;;;;;11.60;7.97;;;;;;;21.01;64.21;96187.09;5076218;28;20027;-73
2021/07/30 01:51:46;;;;;;;16.38;8.40;;;;;;;20.92;64.33;96190.56;5075968;28;20470;-72
2021/07/30 01:54:14;;;;;;;17.20;9.48;;;;;;;20.92;64.19;96188.72;5075944;28;20037;-74
2021/07/30 01:56:41;;;;;;;16.73;8.68;;;;;;;20.87;64.62;96179.44;5076946;28;20028;-74
2021/07/30 01:59:07;;;;;;;16.10;9.40;;;;;;;20.82;64.68;96186.00;5096151;28;20039;-77
2021/07/30 02:01:33;;;;;;;13.15;9.00;;;;;;;20.77;64.75;96180.22;5096193;28;20046;-75
2021/07/30 02:03:59;;;;;;;19.48;9.23;;;;;;;20.73;64.92;96168.19;5096275;28;20024;-78
2021/07/30 02:06:25;;;;;;;16.60;8.25;;;;;;;20.74;65.01;96167.19;5081874;28;20037;-80
2021/07/30 02:08:50;;;;;;;19.10;8.68;;;;;;;20.77;65.01;96168.78;5075936;28;20020;-80
2021/07/30 02:11:15;;;;;;;15.18;8.45;;;;;;;20.62;64.59;96170.91;5075925;28;20027;-74
2021/07/30 02:16:25;;;;;;;15.80;9.18;;;;;;;20.63;64.71;96173.44;5089557;28;20031;-72
2021/07/30 02:18:51;;;;;;;19.10;9.57;;;;;;;20.58;64.91;96172.97;5096105;28;20020;-74
2021/07/30 02:21:17;;;;;;;17.73;10.07;;;;;;;20.53;65.03;96172.53;5096152;28;20063;-73
2021/07/30 02:23:46;;;;;;;17.52;8.65;;;;;;;20.48;65.17;96175.59;5095823;28;20052;-76
2021/07/30 02:26:12;;;;;;;17.65;10.13;;;;;;;20.50;65.38;96175.47;5095823;28;20519;-75
2021/07/30 02:28:38;;;;;;;10.57;8.57;;;;;;;20.41;65.18;96175.25;5094194;28;20019;-72
2021/07/30 02:31:03;;;;;;;21.33;9.65;;;;;;;20.46;65.55;96161.56;5095719;28;20024;-78
2021/07/30 02:33:29;;;;;;;20.90;9.20;;;;;;;20.51;65.39;96167.34;5095775;28;20035;-77
2021/07/30 02:35:55;;;;;;;20.02;8.55;;;;;;;20.56;65.43;96170.44;5095697;28;20022;-76
2021/07/30 02:38:20;;;;;;;17.73;9.93;;;;;;;20.61;65.37;96177.19;5094986;28;20056;-75
2021/07/30 02:40:46;;;;;;;17.30;9.00;;;;;;;20.58;64.96;96176.50;5082434;28;20469;-72
2021/07/30 02:43:11;;;;;;;15.70;8.90;;;;;;;20.57;65.04;96180.13;5075437;28;20028;-73
2021/07/30 02:45:37;;;;;;;20.02;9.88;;;;;;;20.53;65.08;96175.19;5075365;28;20025;-72
2021/07/30 02:48:02;;;;;;;20.70;8.77;;;;;;;20.53;65.43;96173.38;5075297;28;20025;-77
2021/07/30 02:50:28;;;;;;;19.08;8.85;;;;;;;20.56;65.33;96172.28;5074967;28;20436;-70
2021/07/30 02:52:54;;;;;;;18.25;9.15;;;;;;;20.53;65.71;96167.22;5076115;28;20029;-74
2021/07/30 02:55:19;;;;;;;23.63;9.93;;;;;;;20.47;65.55;96175.72;5075082;28;20024;-78
2021/07/30 02:57:45;;;;;;;14.90;8.88;;;;;;;20.42;65.58;96168.13;5075013;28;20104;-75
2021/07/30 03:00:11;;;;;;;13.95;8.73;;;;;;;20.39;65.86;96169.25;5074780;28;20393;-76
2021/07/30 03:02:37;;;;;;;24.00;10.00;;;;;;;20.41;65.51;96172.59;5075104;28;20024;-74
2021/07/30 03:05:03;;;;;;;16.33;9.70;;;;;;;20.37;65.48;96168.50;5082235;28;20054;-74
2021/07/30 03:07:29;;;;;;;21.70;9.27;;;;;;;20.40;66.21;96170.06;5081998;28;20054;-74
2021/07/30 03:09:54;;;;;;;21.63;8.70;;;;;;;20.35;66.08;96167.81;5075793;28;20033;-74
2021/07/30 03:12:20;;;;;;;24.90;9.35;;;;;;;20.31;65.97;96175.19;5074865;28;20522;-76
2021/07/30 03:14:46;;;;;;;17.88;9.68;;;;;;;20.33;66.06;96172.41;5074681;28;20390;-73
2021/07/30 03:17:11;;;;;;;14.18;8.95;;;;;;;20.34;65.68;96174.06;5074656;28;20028;-74
2021/07/30 03:19:37;;;;;;;15.30;9.30;;;;;;;20.37;65.75;96173.81;5086596;28;20032;-73
2021/07/30 03:22:02;;;;;;;19.55;9.13;;;;;;;20.43;66.01;96173.31;5093238;28;20028;-73
2021/07/30 03:24:28;;;;;;;14.07;9.48;;;;;;;20.41;65.94;96175.25;5083455;28;20029;-73
2021/07/30 03:26:53;;;;;;;19.83;9.73;;;;;;;20.44;65.96;96174.16;5055549;28;20123;-73
2021/07/30 03:29:20;;;;;;;14.65;8.27;;;;;;;20.44;66.03;96179.47;5074454;28;20048;-73
2021/07/30 03:31:47;;;;;;;16.92;8.57;;;;;;;20.47;65.67;96175.72;5073121;28;20089;-76
2021/07/30 03:34:14;;;;;;;14.35;8.38;;;;;;;20.53;65.78;96181.34;5073392;28;20028;-74
2021/07/30 03:36:40;;;;;;;14.80;8.48;;;;;;;20.62;65.77;96185.03;5073327;28;20064;-72
2021/07/30 03:39:06;;;;;;;14.02;8.65;;;;;;;20.68;65.37;96184.50;5073330;28;20155;-73
2021/07/30 03:41:31;;;;;;;16.83;8.95;;;;;;;20.78;65.33;96189.91;5074185;28;20077;-71
2021/07/30 03:43:57;;;;;;;14.45;9.23;;;;;;;20.85;65.61;96184.88;5074219;28;20021;-71
2021/07/30 03:46:22;;;;;;;17.23;9.98;;;;;;;20.84;65.05;96189.34;5074049;28;20033;-71
2021/07/30 03:48:48;;;;;;;18.23;9.35;;;;;;;20.89;64.86;96190.78;5073957;28;20021;-71
2021/07/30 03:51:14;;;;;;;19.90;8.02;;;;;;;20.92;64.96;96188.72;5073083;28;20475;-74
2021/07/30 03:53:39;;;;;;;18.30;8.98;;;;;;;21.06;65.33;96186.69;5073863;28;20506;-72
2021/07/30 03:56:15;;;;;;;24.90;8.05;;;;;;;21.14;64.91;96188.69;5074053;28;20100;-71
2021/07/30 03:58:41;;;;;;;11.30;8.25;;;;;;;21.27;64.68;96189.31;5073886;28;20103;-74
2021/07/30 04:01:11;;;;;;;19.77;7.90;;;;;;;21.45;64.76;96186.88;5073596;28;20036;-73
2021/07/30 04:03:37;;;;;;;17.20;9.70;;;;;;;21.69;64.20;96188.31;5073809;28;20502;-74
2021/07/30 04:06:04;;;;;;;14.88;7.80;;;;;;;21.90;63.42;96189.22;5073675;28;20020;-73
2021/07/30 04:08:29;;;;;;;13.73;7.43;;;;;;;22.07;62.89;96185.88;5073600;28;20017;-74
2021/07/30 04:10:55;;;;;;;19.63;8.68;;;;;;;22.27;62.96;96177.88;5073486;28;20021;-74
2021/07/30 04:13:20;;;;;;;13.40;7.85;;;;;;;22.57;62.05;96184.06;5073504;28;20028;-76
2021/07/30 04:15:46;;;;;;;11.88;7.53;;;;;;;22.79;61.74;96181.22;5073668;28;20390;-73
2021/07/30 04:18:11;;;;;;;13.02;8.57;;;;;;;23.05;60.86;96194.75;5073474;28;20024;-73
2021/07/30 04:20:40;;;;;;;19.92;7.93;;;;;;;23.37;60.47;96187.38;5073412;28;20064;-71
2021/07/30 04:23:06;;;;;;;9.98;7.47;;;;;;;23.68;59.75;96181.72;5073401;28;20113;-73
2021/07/30 04:25:32;;;;;;;10.60;6.50;;;;;;;24.00;59.39;96186.72;5073276;28;20098;-75
2021/07/30 04:27:57;;;;;;;17.40;7.15;;;;;;;24.24;59.14;96183.50;5073389;28;20024;-74
2021/07/30 04:30:23;;;;;;;14.52;7.07;;;;;;;24.53;57.93;96189.56;5073133;28;20388;-71
2021/07/30 04:32:50;;;;;;;19.48;8.48;;;;;;;24.78;57.31;96195.09;5073446;28;20016;-74
2021/07/30 04:35:15;;;;;;;20.17;8.30;;;;;;;25.06;56.93;96182.44;5073630;28;20027;-71
2021/07/30 04:37:41;;;;;;;14.80;7.05;;;;;;;25.36;56.12;96179.41;5073399;28;20106;-71
2021/07/30 04:40:07;;;;;;;16.95;7.32;;;;;;;25.65;56.35;96188.94;5073203;28;20493;-73
2021/07/30 04:42:32;;;;;;;14.70;7.15;;;;;;;25.99;56.09;96181.81;5073277;28;20423;-72
2021/07/30 04:44:58;;;;;;;15.38;7.80;;;;;;;26.31;54.92;96188.22;5073140;28;20031;-72
2021/07/30 04:47:24;;;;;;;17.88;6.82;;;;;;;26.64;54.14;96179.38;5073163;28;20020;-74
2021/07/30 04:49:49;;;;;;;16.17;7.30;;;;;;;26.94;54.22;96181.50;5073138;28;20032;-70
2021/07/30 04:52:15;;;;;;;11.25;6.75;;;;;;;27.27;53.59;96184.13;5073051;28;20013;-71
2021/07/30 04:54:40;;;;;;;20.15;7.55;;;;;;;27.57;51.88;96181.66;5073098;28;20378;-71
2021/07/30 04:57:09;;;;;;;14.02;7.18;;;;;;;27.85;52.11;96183.06;5073145;28;20463;-75
2021/07/30 04:59:35;;;;;;;15.27;6.85;;;;;;;28.15;51.20;96185.91;5073029;28;20490;-73
2021/07/30 05:02:00;;;;;;;24.52;8.40;;;;;;;28.47;51.60;96185.91;5072598;28;20052;-74
2021/07/30 05:04:26;;;;;;;15.77;7.95;;;;;;;28.58;50.70;96188.16;5072945;28;20496;-69
2021/07/30 05:06:51;;;;;;;13.52;7.68;;;;;;;28.51;50.52;96182.63;5073078;28;20024;-70
2021/07/30 05:09:17;;;;;;;14.18;7.25;;;;;;;28.51;50.73;96187.19;5072932;28;20082;-74
2021/07/30 05:11:43;;;;;;;13.40;7.30;;;;;;;28.35;51.23;96193.53;5072895;28;20427;-74
2021/07/30 05:14:09;;;;;;;13.85;7.55;;;;;;;28.12;50.98;96194.34;5072833;28;20021;-70
2021/07/30 05:16:34;;;;;;;14.52;7.70;;;;;;;28.07;51.39;96197.56;5072870;28;20044;-71
2021/07/30 05:19:00;;;;;;;12.15;7.80;;;;;;;28.29;52.54;96205.84;5072841;28;20025;-73
2021/07/30 05:21:26;;;;;;;15.18;6.93;;;;;;;28.51;51.08;96200.66;5072799;28;20033;-70
2021/07/30 05:23:52;;;;;;;19.90;7.78;;;;;;;28.81;51.40;96197.19;5072929;28;20509;-72
2021/07/30 05:26:17;;;;;;;15.65;7.45;;;;;;;29.11;49.91;96197.28;5072677;28;20052;-72
2021/07/30 05:28:43;;;;;;;12.68;6.82;;;;;;;29.35;50.34;96201.53;5072749;28;20025;-70
2021/07/30 05:31:16;;;;;;;11.27;6.78;;;;;;;29.62;49.48;96203.78;5072864;28;20031;-75
2021/07/30 05:33:43;;;;;;;15.20;7.00;;;;;;;29.98;49.82;96207.53;5072643;28;20070;-73
2021/07/30 05:36:16;;;;;;;16.65;6.32;;;;;;;30.30;47.73;96202.72;5072845;28;20020;-70
2021/07/30 05:38:42;;;;;;;15.32;7.50;;;;;;;30.33;46.18;96198.78;5072569;28;20408;-71
2021/07/30 05:41:12;;;;;;;16.08;7.25;;;;;;;30.42;46.49;96194.94;5072665;28;20024;-74
2021/07/30 05:43:39;;;;;;;17.23;7.22;;;;;;;30.67;45.74;96194.53;5072584;28;20039;-69
2021/07/30 05:46:05;;;;;;;17.88;6.95;;;;;;;30.85;45.20;96191.38;5072335;28;20039;-72
2021/07/30 05:48:31;;;;;;;15.63;7.00;;;;;;;30.93;46.72;96203.06;5072554;28;20442;-71
2021/07/30 05:50:56;;;;;;;17.23;6.25;;;;;;;31.00;45.59;96196.69;5072515;28;20124;-71
2021/07/30 05:53:23;;;;;;;17.38;6.95;;;;;;;31.12;47.07;96199.69;5072523;28;20017;-76
2021/07/30 05:55:48;;;;;;;15.63;7.80;;;;;;;31.44;43.59;96201.13;5072425;28;20048;-71
2021/07/30 05:58:14;;;;;;;14.88;6.78;;;;;;;31.72;41.88;96195.66;5072495;28;20063;-73
2021/07/30 06:00:39;;;;;;;13.52;6.68;;;;;;;31.97;43.27;96197.03;5072232;28;20095;-74
2021/07/30 06:03:05;;;;;;;17.58;6.43;;;;;;;32.19;40.76;96196.88;5072334;28;20470;-70
2021/07/30 06:05:31;;;;;;;14.40;7.03;;;;;;;32.57;41.58;96200.94;5072306;28;20025;-73
2021/07/30 06:07:57;;;;;;;23.58;7.32;;;;;;;32.95;41.33;96196.78;5072384;28;20023;-71
2021/07/30 06:10:23;;;;;;;14.45;6.50;;;;;;;33.28;44.32;96193.19;5072425;28;20078;-72
2021/07/30 06:12:49;;;;;;;15.60;6.65;;;;;;;33.68;42.07;96203.13;5072384;28;20429;-70
2021/07/30 06:15:14;;;;;;;14.93;6.68;;;;;;;33.91;41.33;96197.19;5075066;28;20020;-72
2021/07/30 06:17:40;;;;;;;14.63;7.28;;;;;;;34.08;40.35;96198.56;5075838;28;20035;-71
2021/07/30 06:20:08;;;;;;;18.40;7.55;;;;;;;34.38;40.40;96204.25;5058055;28;20028;-74
2021/07/30 06:22:36;;;;;;;17.35;6.80;;;;;;;34.81;39.88;96199.16;5075836;28;20155;-75
2021/07/30 06:25:03;;;;;;;14.32;7.10;;;;;;;35.16;37.44;96195.09;5075598;28;20048;-72
2021/07/30 06:27:28;;;;;;;18.27;7.95;;;;;;;35.39;37.45;96193.59;5075766;28;20024;-73
2021/07/30 06:29:54;;;;;;;14.60;7.75;;;;;;;35.44;35.98;96188.34;5075458;28;20013;-73
2021/07/30 06:32:19;;;;;;;19.02;7.47;;;;;;;35.51;35.63;96189.09;5075517;28;20094;-73
2021/07/30 06:34:45;;;;;;;17.48;6.93;;;;;;;35.82;36.76;96196.50;5075632;28;20028;-73
2021/07/30 06:37:10;;;;;;;18.88;7.22;;;;;;;36.03;35.70;96198.72;5075611;28;20020;-72
2021/07/30 06:39:40;;;;;;;14.13;6.97;;;;;;;36.32;35.28;96200.88;5075463;28;20020;-71
2021/07/30 06:42:05;;;;;;;20.10;7.00;;;;;;;36.53;34.70;96204.97;5075392;28;20057;-69
2021/07/30 06:44:31;;;;;;;11.77;6.68;;;;;;;36.76;32.04;96205.25;5075322;28;20656;-70
2021/07/30 06:46:56;;;;;;;11.45;6.40;;;;;;;36.95;33.53;96205.19;5075552;28;20021;-69
2021/07/30 06:49:22;;;;;;;16.67;6.78;;;;;;;37.17;33.79;96202.69;5075333;28;20090;-74
2021/07/30 06:51:47;;;;;;;20.00;7.25;;;;;;;37.44;33.96;96201.38;5075085;28;20028;-73
2021/07/30 06:54:13;;;;;;;13.32;7.65;;;;;;;37.68;32.18;96210.41;5075123;28;20021;-73
2021/07/30 06:56:38;;;;;;;21.58;8.13;;;;;;;37.83;30.60;96203.59;5075124;28;20078;-73
2021/07/30 06:59:04;;;;;;;19.13;6.93;;;;;;;37.92;33.49;96204.88;5075226;28;20090;-73
2021/07/30 07:01:29;;;;;;;13.55;6.97;;;;;;;38.12;31.92;96211.78;5074976;28;20075;-73
2021/07/30 07:03:55;;;;;;;17.98;8.05;;;;;;;38.34;32.15;96211.94;5074847;28;20466;-70
2021/07/30 07:06:20;;;;;;;15.77;7.10;;;;;;;38.54;31.59;96210.66;5074919;28;20017;-69
2021/07/30 07:08:46;;;;;;;14.75;7.70;;;;;;;38.71;29.91;96218.91;5074863;28;20022;-71
2021/07/30 07:11:12;;;;;;;21.02;7.20;;;;;;;38.86;28.42;96212.03;5074744;28;20493;-71
2021/07/30 07:13:37;;;;;;;20.77;6.30;;;;;;;38.90;28.43;96210.44;5074855;28;20074;-73
2021/07/30 07:16:04;;;;;;;14.10;6.85;;;;;;;39.07;30.85;96215.91;5074775;28;20041;-74
2021/07/30 07:18:32;;;;;;;19.85;7.05;;;;;;;39.24;30.49;96212.38;5074615;28;20082;-70
2021/07/30 07:20:57;;;;;;;18.45;7.43;;;;;;;39.24;29.40;96213.19;5074665;28;20504;-71
2021/07/30 07:23:23;;;;;;;19.67;7.65;;;;;;;38.73;29.76;96216.72;5074500;28;20025;-71
2021/07/30 07:25:48;;;;;;;16.42;7.35;;;;;;;38.60;31.52;96214.28;5074470;28;20028;-71
2021/07/30 07:28:14;;;;;;;17.40;7.53;;;;;;;38.54;27.82;96208.75;5074352;28;20017;-71
2021/07/30 07:30:40;;;;;;;17.33;7.20;;;;;;;38.47;30.29;96202.63;5074318;28;20051;-74
2021/07/30 07:33:05;;;;;;;18.90;7.68;;;;;;;38.51;31.55;96209.25;5074575;28;20032;-72
2021/07/30 07:35:31;;;;;;;18.13;7.53;;;;;;;38.72;29.75;96211.50;5074354;28;20020;-70
2021/07/30 07:38:04;;;;;;;22.15;7.53;;;;;;;39.00;29.57;96207.88;5074448;28;20023;-73
2021/07/30 07:40:30;;;;;;;18.27;8.73;;;;;;;39.23;30.29;96203.31;5074218;28;20024;-72
2021/07/30 07:42:57;;;;;;;20.50;7.75;;;;;;;39.49;32.55;96191.91;5074128;28;20031;-73
2021/07/30 07:45:23;;;;;;;15.70;7.28;;;;;;;39.62;29.91;96205.25;5074014;28;20028;-69
2021/07/30 07:47:48;;;;;;;21.30;7.80;;;;;;;39.70;28.84;96201.25;5074200;28;20115;-71
2021/07/30 07:50:14;;;;;;;18.95;7.78;;;;;;;39.84;28.82;96198.13;5074055;28;20441;-71
2021/07/30 07:52:40;;;;;;;17.42;7.93;;;;;;;39.85;28.29;96202.50;5073966;28;20024;-71
2021/07/30 07:55:07;;;;;;;19.52;8.45;;;;;;;39.93;27.73;96200.16;5073981;28;20094;-72
2021/07/30 07:57:33;;;;;;;22.85;7.97;;;;;;;39.97;27.14;96200.47;5073901;28;20040;-70
2021/07/30 07:59:59;;;;;;;16.48;8.13;;;;;;;39.83;26.85;96199.19;5073553;28;20386;-70
2021/07/30 08:02:25;;;;;;;22.48;8.25;;;;;;;39.99;26.97;96192.00;5073835;28;20024;-72
2021/07/30 08:04:51;;;;;;;22.30;7.82;;;;;;;39.93;27.35;96193.84;5073875;28;20486;-71
2021/07/30 08:07:17;;;;;;;17.10;8.13;;;;;;;39.87;28.34;96194.84;5073827;28;20035;-74
2021/07/30 08:09:44;;;;;;;22.40;8.40;;;;;;;39.93;27.90;96191.09;5073751;28;20028;-72
2021/07/30 08:12:10;;;;;;;22.00;7.95;;;;;;;40.02;27.63;96199.72;5073766;28;20115;-70
2021/07/30 08:14:38;;;;;;;22.58;8.95;;;;;;;40.14;27.80;96194.94;5073618;28;20044;-71
2021/07/30 08:17:03;;;;;;;22.77;8.70;;;;;;;40.14;26.97;96200.41;5073745;28;20369;-74
2021/07/30 08:19:33;;;;;;;23.83;8.30;;;;;;;39.98;27.10;96198.53;5073444;28;20029;-73
2021/07/30 08:21:58;;;;;;;16.60;9.50;;;;;;;40.01;27.53;96209.84;5073573;28;20477;-74
2021/07/30 08:24:24;;;;;;;16.45;8.80;;;;;;;40.16;27.16;96195.50;5073432;28;20044;-70
2021/07/30 08:26:49;;;;;;;19.65;8.95;;;;;;;40.14;27.33;96197.66;5073501;28;20017;-71
2021/07/30 08:29:18;;;;;;;19.35;8.75;;;;;;;40.02;26.93;96194.22;5073429;28;20021;-74
2021/07/30 08:31:43;;;;;;;26.23;9.10;;;;;;;39.93;27.46;96186.47;5073240;28;20036;-73
2021/07/30 08:34:11;;;;;;;24.60;9.55;;;;;;;40.03;27.16;96193.97;5073412;28;20024;-74
2021/07/30 08:36:37;;;;;;;22.95;10.13;;;;;;;39.99;27.14;96192.81;5072942;28;20024;-73
2021/07/30 08:39:03;;;;;;;18.50;9.27;;;;;;;40.15;27.00;96177.41;5073376;28;20021;-72
2021/07/30 08:41:28;;;;;;;22.40;9.50;;;;;;;40.29;26.55;96179.72;5073151;28;20033;-74
2021/07/30 08:43:55;;;;;;;27.27;10.68;;;;;;;40.47;28.17;96175.00;5073148;28;20421;-72
2021/07/30 08:46:25;;;;;;;20.65;8.85;;;;;;;40.44;26.67;96173.56;5073241;28;20021;-70
2021/07/30 08:48:51;;;;;;;22.40;9.38;;;;;;;40.54;26.62;96175.63;5073134;28;20046;-70
2021/07/30 08:51:19;;;;;;;23.50;9.65;;;;;;;40.34;26.40;96178.97;5072893;28;20024;-71
2021/07/30 08:53:46;;;;;;;25.75;8.85;;;;;;;40.38;26.31;96171.88;5073107;28;20108;-73
2021/07/30 08:56:13;;;;;;;24.25;9.75;;;;;;;40.61;25.86;96173.50;5072988;28;20498;-71
2021/07/30 08:58:38;;;;;;;25.45;9.68;;;;;;;40.66;26.59;96165.28;5072945;28;20016;-71
2021/07/30 09:01:04;;;;;;;31.30;9.85;;;;;;;40.57;26.21;96177.00;5072848;28;20071;-72
2021/07/30 09:03:43;;;;;;;22.70;9.23;;;;;;;40.22;26.36;96166.25;5072946;28;20024;-72
2021/07/30 09:06:16;;;;;;;19.35;9.25;;;;;;;40.17;26.18;96163.47;5072943;28;20037;-72
2021/07/30 09:08:43;;;;;;;24.05;8.63;;;;;;;40.26;25.71;96166.56;5073059;28;20082;-69
2021/07/30 09:11:08;;;;;;;37.75;8.73;;;;;;;40.26;26.45;96167.41;5072738;28;20101;-70
2021/07/30 09:13:35;;;;;;;21.88;9.13;;;;;;;40.23;26.98;96156.97;5072846;28;20470;-71
2021/07/30 09:16:10;;;;;;;22.77;8.43;;;;;;;40.21;25.96;96153.66;5072948;28;20128;-70
2021/07/30 09:18:41;;;;;;;25.52;8.63;;;;;;;40.30;25.37;96151.28;5072911;28;20020;-70
2021/07/30 09:21:28;;;;;;;16.85;8.70;;;;;;;40.26;25.58;96140.00;5072824;28;20054;-70
2021/07/30 09:24:08;;;;;;;16.30;7.90;;;;;;;40.38;26.81;96145.31;5072743;28;20115;-73
2021/07/30 09:26:47;;;;;;;17.35;7.95;;;;;;;40.36;25.75;96142.00;5072759;28;20478;-71
2021/07/30 09:29:17;;;;;;;19.97;8.10;;;;;;;40.32;25.42;96143.63;5072755;28;20541;-75
2021/07/30 09:31:54;;;;;;;16.00;7.97;;;;;;;40.25;26.46;96141.09;5054679;28;20738;-73
2021/07/30 09:34:23;;;;;;;15.80;8.27;;;;;;;40.21;26.69;96134.50;5072662;28;20102;-72
2021/07/30 09:36:51;;;;;;;16.17;7.68;;;;;;;39.64;24.24;96131.16;5072716;28;20496;-71
2021/07/30 09:39:19;;;;;;;27.55;7.13;;;;;;;39.29;25.82;96133.16;5072696;28;20020;-72
2021/07/30 09:41:57;;;;;;;15.32;7.13;;;;;;;39.05;26.67;96125.13;5072738;28;20029;-70
2021/07/30 09:44:23;;;;;;;15.60;7.47;;;;;;;39.24;26.93;96124.88;5072490;28;20359;-74
2021/07/30 09:47:12;;;;;;;22.27;7.40;;;;;;;38.96;23.84;96119.28;5072654;28;20017;-72
2021/07/30 09:49:40;;;;;;;17.20;7.65;;;;;;;38.47;23.27;96126.19;5063712;28;20494;-72
2021/07/30 09:52:10;;;;;;;24.88;7.05;;;;;;;38.04;24.09;96118.31;5076223;28;20082;-70
2021/07/30 09:54:40;;;;;;;21.45;7.68;;;;;;;37.92;25.82;96115.66;5076333;28;20562;-68
2021/07/30 09:57:06;;;;;;;26.33;7.75;;;;;;;38.05;25.74;96113.69;5076138;28;20494;-71
2021/07/30 09:59:39;;;;;;;16.60;7.55;;;;;;;37.50;24.73;96113.19;5076150;28;20099;-74
2021/07/30 10:02:08;;;;;;;20.65;8.43;;;;;;;37.05;25.88;96099.16;5075908;28;20460;-72
2021/07/30 10:04:35;;;;;;;21.60;8.65;;;;;;;37.04;26.03;96100.22;5076111;28;20533;-71
2021/07/30 10:07:02;;;;;;;22.02;8.00;;;;;;;36.96;26.10;96100.59;5076110;28;20051;-70
2021/07/30 10:09:29;;;;;;;18.67;7.25;;;;;;;36.89;25.51;96103.41;5075907;28;20020;-74
2021/07/30 10:11:56;;;;;;;26.42;8.15;;;;;;;36.56;26.73;96094.75;5075812;28;20062;-70
2021/07/30 10:14:25;;;;;;;26.02;8.60;;;;;;;36.64;25.09;96101.75;5075977;28;20028;-74
2021/07/30 10:17:00;;;;;;;18.17;6.90;;;;;;;36.48;26.53;96098.66;5075988;28;20036;-76
2021/07/30 10:19:30;;;;;;;20.25;6.95;;;;;;;36.34;27.47;96091.78;5075850;28;20466;-75
2021/07/30 10:22:01;;;;;;;26.45;8.43;;;;;;;36.63;28.19;96086.47;5075845;28;20058;-72
2021/07/30 10:24:29;;;;;;;28.65;7.85;;;;;;;37.05;28.82;96091.00;5075726;28;20385;-74
2021/07/30 10:27:04;;;;;;;23.83;7.68;;;;;;;37.43;27.67;96077.88;5075615;28;20603;-70
2021/07/30 10:30:00;;;;;;;23.38;7.78;;;;;;;37.71;27.27;96083.63;5075696;28;20016;-73
2021/07/30 10:32:47;;;;;;;20.05;7.53;;;;;;;37.97;25.48;96075.88;5075516;28;20099;-70
2021/07/30 10:35:16;;;;;;;18.35;7.65;;;;;;;38.22;25.80;96078.25;5075447;28;20386;-70
2021/07/30 10:37:42;;;;;;;25.70;7.38;;;;;;;38.52;25.67;96079.03;5075457;28;20492;-73
2021/07/30 10:40:34;;;;;;;29.58;7.43;;;;;;;38.76;24.95;96065.19;5075468;28;20025;-73
2021/07/30 10:43:06;;;;;;;29.08;7.63;;;;;;;38.86;25.74;96065.34;5071556;28;20045;-70
2021/07/30 10:45:36;;;;;;;21.25;6.68;;;;;;;38.71;23.94;96055.03;5075397;28;20062;-74
2021/07/30 10:48:13;;;;;;;13.88;6.53;;;;;;;38.48;23.91;96056.84;5075250;28;20470;-71
2021/07/30 10:50:56;;;;;;;21.17;7.47;;;;;;;38.63;23.82;96047.25;5075263;28;20028;-75
2021/07/30 10:53:32;;;;;;;19.83;7.82;;;;;;;38.61;24.42;96043.91;5075340;28;20037;-69
2021/07/30 10:56:02;;;;;;;20.85;8.35;;;;;;;38.64;23.68;96043.44;5075152;28;20078;-74
2021/07/30 10:58:39;;;;;;;19.00;7.28;;;;;;;38.69;22.73;96040.78;5075115;28;20410;-72
2021/07/30 11:01:12;;;;;;;20.20;7.47;;;;;;;38.60;25.47;96039.50;5074363;28;20041;-73
2021/07/30 11:03:53;;;;;;;22.42;8.35;;;;;;;38.38;23.37;96034.84;5074932;28;20037;-72
2021/07/30 11:06:26;;;;;;;28.48;8.80;;;;;;;37.99;24.71;96044.56;5074814;28;20421;-71
2021/07/30 11:09:03;;;;;;;23.83;7.10;;;;;;;37.88;26.71;96034.53;5074969;28;20028;-70
2021/07/30 11:11:45;;;;;;;16.80;7.55;;;;;;;38.04;24.66;96031.00;5056738;28;20032;-70
2021/07/30 11:14:14;;;;;;;17.38;7.47;;;;;;;37.98;24.04;96032.00;5074740;28;20036;-72
2021/07/30 11:16:44;;;;;;;16.65;6.50;;;;;;;38.14;25.85;96033.09;5074803;28;20021;-72
2021/07/30 11:19:12;;;;;;;25.50;7.28;;;;;;;38.29;25.52;96020.78;5056749;28;20455;-78
2021/07/30 11:21:38;;;;;;;23.92;8.63;;;;;;;38.48;23.95;96020.50;5074683;28;20043;-69
2021/07/30 11:24:05;;;;;;;18.90;8.10;;;;;;;38.60;23.44;96025.84;5074492;28;20028;-72
2021/07/30 11:26:33;;;;;;;17.75;7.70;;;;;;;38.68;23.19;96020.03;5074379;28;20021;-75
2021/07/30 11:29:01;;;;;;;19.52;8.40;;;;;;;38.28;22.23;96017.22;5074506;28;20032;-69